sensor_id;sensor_type;location;lat;lon;timestamp;temperature;humidity
27781;DHT22;15167;1.318;103.762;2023-02-04T00:01:05;24.90;1.00
27781;DHT22;15167;1.318;103.762;2023-02-04T00:03:31;24.90;1.00
27781;DHT22;15167;1.318;103.762;2023-02-04T00:05:57;24.90;1.00
27781;DHT22;15167;1.318;103.762;2023-02-04T00:08:24;24.90;1.00
27781;DHT22;15167;1.318;103.762;2023-02-04T00:10:50;24.90;1.00
27781;DHT22;15167;1.318;103.762;2023-02-04T00:13:16;25.00;1.00
27781;DHT22;15167;1.318;103.762;2023-02-04T00:15:42;25.10;1.00
27781;DHT22;15167;1.318;103.762;2023-02-04T00:18:08;25.20;1.00
27781;DHT22;15167;1.318;103.762;2023-02-04T00:20:35;25.30;1.00
27781;DHT22;15167;1.318;103.762;2023-02-04T00:23:01;25.20;1.00
27781;DHT22;15167;1.318;103.762;2023-02-04T00:25:27;25.20;1.00
27781;DHT22;15167;1.318;103.762;2023-02-04T00:27:53;25.30;1.00
27781;DHT22;15167;1.318;103.762;2023-02-04T00:30:19;25.30;1.00
27781;DHT22;15167;1.318;103.762;2023-02-04T00:32:46;25.30;1.00
27781;DHT22;15167;1.318;103.762;2023-02-04T00:35:12;25.40;1.00
27781;DHT22;15167;1.318;103.762;2023-02-04T00:37:38;25.40;1.00
27781;DHT22;15167;1.318;103.762;2023-02-04T00:40:04;25.60;1.00
27781;DHT22;15167;1.318;103.762;2023-02-04T00:42:30;25.50;1.00
27781;DHT22;15167;1.318;103.762;2023-02-04T00:44:57;25.50;1.00
27781;DHT22;15167;1.318;103.762;2023-02-04T00:47:23;25.50;1.00
27781;DHT22;15167;1.318;103.762;2023-02-04T00:49:49;25.40;1.00
27781;DHT22;15167;1.318;103.762;2023-02-04T00:52:15;25.40;1.00
27781;DHT22;15167;1.318;103.762;2023-02-04T00:54:41;25.40;1.00
27781;DHT22;15167;1.318;103.762;2023-02-04T00:57:07;25.40;1.00
27781;DHT22;15167;1.318;103.762;2023-02-04T00:59:33;25.40;1.00
27781;DHT22;15167;1.318;103.762;2023-02-04T01:01:59;25.50;1.00
27781;DHT22;15167;1.318;103.762;2023-02-04T01:04:26;25.50;99.90
27781;DHT22;15167;1.318;103.762;2023-02-04T01:06:52;25.40;99.90
27781;DHT22;15167;1.318;103.762;2023-02-04T01:09:19;25.40;99.90
27781;DHT22;15167;1.318;103.762;2023-02-04T01:11:45;25.40;99.90
27781;DHT22;15167;1.318;103.762;2023-02-04T01:14:11;25.40;99.90
27781;DHT22;15167;1.318;103.762;2023-02-04T01:16:38;25.40;99.90
27781;DHT22;15167;1.318;103.762;2023-02-04T01:19:04;25.40;99.90
27781;DHT22;15167;1.318;103.762;2023-02-04T01:21:30;25.50;99.90
27781;DHT22;15167;1.318;103.762;2023-02-04T01:23:56;25.40;99.90
27781;DHT22;15167;1.318;103.762;2023-02-04T01:26:22;25.40;99.90
27781;DHT22;15167;1.318;103.762;2023-02-04T01:28:48;25.40;99.90
27781;DHT22;15167;1.318;103.762;2023-02-04T01:31:14;25.50;99.90
27781;DHT22;15167;1.318;103.762;2023-02-04T01:33:41;25.50;99.90
27781;DHT22;15167;1.318;103.762;2023-02-04T01:36:07;25.50;99.90
27781;DHT22;15167;1.318;103.762;2023-02-04T01:38:33;25.50;99.90
27781;DHT22;15167;1.318;103.762;2023-02-04T01:41:00;25.60;99.90
27781;DHT22;15167;1.318;103.762;2023-02-04T01:43:26;25.70;99.90
27781;DHT22;15167;1.318;103.762;2023-02-04T01:45:52;25.70;99.90
27781;DHT22;15167;1.318;103.762;2023-02-04T01:48:19;25.80;99.90
27781;DHT22;15167;1.318;103.762;2023-02-04T01:50:49;26.00;99.90
27781;DHT22;15167;1.318;103.762;2023-02-04T01:53:17;26.10;99.90
27781;DHT22;15167;1.318;103.762;2023-02-04T01:55:45;26.00;99.90
27781;DHT22;15167;1.318;103.762;2023-02-04T01:58:11;26.00;99.90
27781;DHT22;15167;1.318;103.762;2023-02-04T02:00:37;26.00;99.90
27781;DHT22;15167;1.318;103.762;2023-02-04T02:03:04;26.00;99.90
27781;DHT22;15167;1.318;103.762;2023-02-04T02:05:40;26.10;99.90
27781;DHT22;15167;1.318;103.762;2023-02-04T02:08:08;26.10;99.90
27781;DHT22;15167;1.318;103.762;2023-02-04T02:10:35;26.00;99.90
27781;DHT22;15167;1.318;103.762;2023-02-04T02:13:03;26.00;99.90
27781;DHT22;15167;1.318;103.762;2023-02-04T02:15:29;26.00;99.90
27781;DHT22;15167;1.318;103.762;2023-02-04T02:17:56;26.10;99.90
27781;DHT22;15167;1.318;103.762;2023-02-04T02:20:22;26.20;99.90
27781;DHT22;15167;1.318;103.762;2023-02-04T02:23:03;26.30;99.90
27781;DHT22;15167;1.318;103.762;2023-02-04T02:25:31;26.40;99.90
27781;DHT22;15167;1.318;103.762;2023-02-04T02:27:58;26.50;98.40
27781;DHT22;15167;1.318;103.762;2023-02-04T02:30:24;26.40;58.20
27781;DHT22;15167;1.318;103.762;2023-02-04T02:32:52;26.30;87.40
27781;DHT22;15167;1.318;103.762;2023-02-04T02:35:18;26.40;92.40
27781;DHT22;15167;1.318;103.762;2023-02-04T02:37:45;26.60;69.60
27781;DHT22;15167;1.318;103.762;2023-02-04T02:40:11;26.60;39.80
27781;DHT22;15167;1.318;103.762;2023-02-04T02:42:38;26.60;42.00
27781;DHT22;15167;1.318;103.762;2023-02-04T02:45:06;26.50;79.90
27781;DHT22;15167;1.318;103.762;2023-02-04T02:47:33;26.40;75.30
27781;DHT22;15167;1.318;103.762;2023-02-04T02:49:59;26.30;95.80
27781;DHT22;15167;1.318;103.762;2023-02-04T02:52:26;26.40;92.30
27781;DHT22;15167;1.318;103.762;2023-02-04T02:54:52;26.50;58.10
27781;DHT22;15167;1.318;103.762;2023-02-04T02:57:19;26.40;43.50
27781;DHT22;15167;1.318;103.762;2023-02-04T02:59:46;26.50;70.60
27781;DHT22;15167;1.318;103.762;2023-02-04T03:02:13;26.70;49.80
27781;DHT22;15167;1.318;103.762;2023-02-04T03:04:43;26.70;24.80
27781;DHT22;15167;1.318;103.762;2023-02-04T03:07:10;26.60;45.00
27781;DHT22;15167;1.318;103.762;2023-02-04T03:09:37;26.50;48.50
27781;DHT22;15167;1.318;103.762;2023-02-04T03:12:04;26.50;43.50
27781;DHT22;15167;1.318;103.762;2023-02-04T03:14:31;26.50;97.40
27781;DHT22;15167;1.318;103.762;2023-02-04T03:16:57;26.60;99.10
27781;DHT22;15167;1.318;103.762;2023-02-04T03:19:25;26.40;87.80
27781;DHT22;15167;1.318;103.762;2023-02-04T03:21:52;26.30;99.70
27781;DHT22;15167;1.318;103.762;2023-02-04T03:24:19;26.30;99.90
27781;DHT22;15167;1.318;103.762;2023-02-04T03:26:45;26.20;99.90
27781;DHT22;15167;1.318;103.762;2023-02-04T03:29:11;26.10;99.90
27781;DHT22;15167;1.318;103.762;2023-02-04T03:31:37;26.00;99.90
27781;DHT22;15167;1.318;103.762;2023-02-04T03:34:04;26.00;99.90
27781;DHT22;15167;1.318;103.762;2023-02-04T03:36:30;26.00;99.90
27781;DHT22;15167;1.318;103.762;2023-02-04T03:38:56;25.90;99.90
27781;DHT22;15167;1.318;103.762;2023-02-04T03:41:22;25.80;99.90
27781;DHT22;15167;1.318;103.762;2023-02-04T03:43:48;25.70;99.90
27781;DHT22;15167;1.318;103.762;2023-02-04T03:46:15;25.60;99.90
27781;DHT22;15167;1.318;103.762;2023-02-04T03:48:41;25.40;1.00
27781;DHT22;15167;1.318;103.762;2023-02-04T03:51:07;25.40;1.00
27781;DHT22;15167;1.318;103.762;2023-02-04T03:53:33;25.40;1.00
27781;DHT22;15167;1.318;103.762;2023-02-04T03:55:59;25.40;1.00
27781;DHT22;15167;1.318;103.762;2023-02-04T03:58:25;25.30;1.00
27781;DHT22;15167;1.318;103.762;2023-02-04T04:00:51;25.20;1.00
27781;DHT22;15167;1.318;103.762;2023-02-04T04:03:18;24.90;23.60
27781;DHT22;15167;1.318;103.762;2023-02-04T04:05:44;24.80;99.90
27781;DHT22;15167;1.318;103.762;2023-02-04T04:08:10;24.70;99.90
27781;DHT22;15167;1.318;103.762;2023-02-04T04:10:36;24.70;99.90
27781;DHT22;15167;1.318;103.762;2023-02-04T04:13:02;24.80;99.90
27781;DHT22;15167;1.318;103.762;2023-02-04T04:15:28;24.80;99.90
27781;DHT22;15167;1.318;103.762;2023-02-04T04:17:55;24.90;99.90
27781;DHT22;15167;1.318;103.762;2023-02-04T04:20:21;24.90;94.40
27781;DHT22;15167;1.318;103.762;2023-02-04T04:22:50;25.00;73.60
27781;DHT22;15167;1.318;103.762;2023-02-04T04:25:16;25.10;23.00
27781;DHT22;15167;1.318;103.762;2023-02-04T04:27:42;25.10;2.50
27781;DHT22;15167;1.318;103.762;2023-02-04T04:30:09;25.20;1.00
27781;DHT22;15167;1.318;103.762;2023-02-04T04:32:35;25.20;1.00
27781;DHT22;15167;1.318;103.762;2023-02-04T04:35:02;25.20;1.00
27781;DHT22;15167;1.318;103.762;2023-02-04T04:37:28;25.20;1.00
27781;DHT22;15167;1.318;103.762;2023-02-04T04:39:54;25.20;1.00
27781;DHT22;15167;1.318;103.762;2023-02-04T04:42:20;25.10;1.00
27781;DHT22;15167;1.318;103.762;2023-02-04T04:44:46;25.00;1.00
27781;DHT22;15167;1.318;103.762;2023-02-04T04:47:12;25.00;1.00
27781;DHT22;15167;1.318;103.762;2023-02-04T04:49:38;25.00;1.00
27781;DHT22;15167;1.318;103.762;2023-02-04T04:52:05;25.00;1.00
27781;DHT22;15167;1.318;103.762;2023-02-04T04:54:31;25.00;1.00
27781;DHT22;15167;1.318;103.762;2023-02-04T04:56:57;25.00;1.00
27781;DHT22;15167;1.318;103.762;2023-02-04T04:59:23;25.00;1.00
27781;DHT22;15167;1.318;103.762;2023-02-04T05:01:49;25.00;1.00
27781;DHT22;15167;1.318;103.762;2023-02-04T05:04:16;25.10;1.00
27781;DHT22;15167;1.318;103.762;2023-02-04T05:06:42;25.20;1.00
27781;DHT22;15167;1.318;103.762;2023-02-04T05:09:08;25.30;1.00
27781;DHT22;15167;1.318;103.762;2023-02-04T05:11:34;25.40;1.00
27781;DHT22;15167;1.318;103.762;2023-02-04T05:14:00;25.40;1.00
27781;DHT22;15167;1.318;103.762;2023-02-04T05:16:26;25.40;1.00
27781;DHT22;15167;1.318;103.762;2023-02-04T05:18:52;25.30;1.00
27781;DHT22;15167;1.318;103.762;2023-02-04T05:21:18;25.30;1.00
27781;DHT22;15167;1.318;103.762;2023-02-04T05:23:44;25.30;1.00
27781;DHT22;15167;1.318;103.762;2023-02-04T05:26:10;25.40;1.00
27781;DHT22;15167;1.318;103.762;2023-02-04T05:28:37;25.40;1.00
27781;DHT22;15167;1.318;103.762;2023-02-04T05:31:03;25.30;1.00
27781;DHT22;15167;1.318;103.762;2023-02-04T05:33:29;25.30;1.00
27781;DHT22;15167;1.318;103.762;2023-02-04T05:35:55;25.20;1.00
27781;DHT22;15167;1.318;103.762;2023-02-04T05:38:21;25.10;1.00
27781;DHT22;15167;1.318;103.762;2023-02-04T05:40:47;25.10;1.00
27781;DHT22;15167;1.318;103.762;2023-02-04T05:43:13;25.00;1.00
27781;DHT22;15167;1.318;103.762;2023-02-04T05:45:39;24.90;1.00
27781;DHT22;15167;1.318;103.762;2023-02-04T05:48:05;24.90;1.00
27781;DHT22;15167;1.318;103.762;2023-02-04T05:50:31;24.80;1.00
27781;DHT22;15167;1.318;103.762;2023-02-04T05:52:57;24.90;1.00
27781;DHT22;15167;1.318;103.762;2023-02-04T05:55:24;24.80;8.50
27781;DHT22;15167;1.318;103.762;2023-02-04T05:57:50;24.70;18.80
27781;DHT22;15167;1.318;103.762;2023-02-04T06:00:16;24.70;50.00
27781;DHT22;15167;1.318;103.762;2023-02-04T06:02:42;24.60;95.20
27781;DHT22;15167;1.318;103.762;2023-02-04T06:05:08;24.60;99.90
27781;DHT22;15167;1.318;103.762;2023-02-04T06:07:34;24.60;99.90
27781;DHT22;15167;1.318;103.762;2023-02-04T06:10:01;24.50;99.90
27781;DHT22;15167;1.318;103.762;2023-02-04T06:12:27;24.50;99.90
27781;DHT22;15167;1.318;103.762;2023-02-04T06:14:53;24.50;99.90
27781;DHT22;15167;1.318;103.762;2023-02-04T06:17:19;24.60;99.90
27781;DHT22;15167;1.318;103.762;2023-02-04T06:19:45;24.60;99.90
27781;DHT22;15167;1.318;103.762;2023-02-04T06:22:11;24.50;99.90
27781;DHT22;15167;1.318;103.762;2023-02-04T06:24:37;24.50;99.90
27781;DHT22;15167;1.318;103.762;2023-02-04T06:27:04;24.50;97.30
27781;DHT22;15167;1.318;103.762;2023-02-04T06:29:30;24.50;98.20
27781;DHT22;15167;1.318;103.762;2023-02-04T06:31:56;24.50;84.40
27781;DHT22;15167;1.318;103.762;2023-02-04T06:34:22;24.50;50.80
27781;DHT22;15167;1.318;103.762;2023-02-04T06:36:48;24.40;60.50
27781;DHT22;15167;1.318;103.762;2023-02-04T06:39:14;24.40;55.50
27781;DHT22;15167;1.318;103.762;2023-02-04T06:41:40;24.30;56.20
27781;DHT22;15167;1.318;103.762;2023-02-04T06:44:06;24.30;73.80
27781;DHT22;15167;1.318;103.762;2023-02-04T06:46:32;24.20;92.20
27781;DHT22;15167;1.318;103.762;2023-02-04T06:48:58;24.20;98.30
27781;DHT22;15167;1.318;103.762;2023-02-04T06:51:24;24.20;99.90
27781;DHT22;15167;1.318;103.762;2023-02-04T06:53:51;24.20;99.90
27781;DHT22;15167;1.318;103.762;2023-02-04T06:56:17;24.10;99.90
27781;DHT22;15167;1.318;103.762;2023-02-04T06:58:43;24.10;99.90
27781;DHT22;15167;1.318;103.762;2023-02-04T07:01:09;24.10;99.90
27781;DHT22;15167;1.318;103.762;2023-02-04T07:03:35;24.00;99.90
27781;DHT22;15167;1.318;103.762;2023-02-04T07:06:01;24.10;99.90
27781;DHT22;15167;1.318;103.762;2023-02-04T07:08:27;24.10;99.90
27781;DHT22;15167;1.318;103.762;2023-02-04T07:10:53;24.10;99.90
27781;DHT22;15167;1.318;103.762;2023-02-04T07:13:20;24.10;99.90
27781;DHT22;15167;1.318;103.762;2023-02-04T07:15:46;24.20;99.90
27781;DHT22;15167;1.318;103.762;2023-02-04T07:18:12;24.20;99.90
27781;DHT22;15167;1.318;103.762;2023-02-04T07:20:38;24.20;99.90
27781;DHT22;15167;1.318;103.762;2023-02-04T07:23:04;24.20;99.90
27781;DHT22;15167;1.318;103.762;2023-02-04T07:25:30;24.30;99.90
27781;DHT22;15167;1.318;103.762;2023-02-04T07:27:56;24.20;99.90
27781;DHT22;15167;1.318;103.762;2023-02-04T07:30:23;24.20;99.90
27781;DHT22;15167;1.318;103.762;2023-02-04T07:32:49;24.30;99.90
27781;DHT22;15167;1.318;103.762;2023-02-04T07:35:16;24.30;99.90
27781;DHT22;15167;1.318;103.762;2023-02-04T07:37:42;24.30;99.90
27781;DHT22;15167;1.318;103.762;2023-02-04T07:40:08;24.30;99.90
27781;DHT22;15167;1.318;103.762;2023-02-04T07:42:35;24.40;99.90
27781;DHT22;15167;1.318;103.762;2023-02-04T07:45:01;24.40;99.90
27781;DHT22;15167;1.318;103.762;2023-02-04T07:47:27;24.40;99.90
27781;DHT22;15167;1.318;103.762;2023-02-04T07:49:53;24.30;99.90
27781;DHT22;15167;1.318;103.762;2023-02-04T07:52:24;24.40;99.90
27781;DHT22;15167;1.318;103.762;2023-02-04T07:54:51;24.40;99.90
27781;DHT22;15167;1.318;103.762;2023-02-04T07:57:18;24.40;99.90
27781;DHT22;15167;1.318;103.762;2023-02-04T07:59:44;24.50;99.90
27781;DHT22;15167;1.318;103.762;2023-02-04T08:02:10;24.40;99.90
27781;DHT22;15167;1.318;103.762;2023-02-04T08:04:36;24.40;99.90
27781;DHT22;15167;1.318;103.762;2023-02-04T08:07:05;24.30;99.90
27781;DHT22;15167;1.318;103.762;2023-02-04T08:09:31;24.30;99.90
27781;DHT22;15167;1.318;103.762;2023-02-04T08:11:58;24.30;99.90
27781;DHT22;15167;1.318;103.762;2023-02-04T08:14:24;24.30;99.90
27781;DHT22;15167;1.318;103.762;2023-02-04T08:16:50;24.30;99.90
27781;DHT22;15167;1.318;103.762;2023-02-04T08:19:16;24.30;99.90
27781;DHT22;15167;1.318;103.762;2023-02-04T08:21:45;24.30;99.90
27781;DHT22;15167;1.318;103.762;2023-02-04T08:24:11;24.10;99.90
27781;DHT22;15167;1.318;103.762;2023-02-04T08:26:38;24.10;99.90
27781;DHT22;15167;1.318;103.762;2023-02-04T08:29:04;24.10;99.90
27781;DHT22;15167;1.318;103.762;2023-02-04T08:31:30;24.20;99.90
27781;DHT22;15167;1.318;103.762;2023-02-04T08:33:56;24.20;99.90
27781;DHT22;15167;1.318;103.762;2023-02-04T08:36:22;24.30;99.90
27781;DHT22;15167;1.318;103.762;2023-02-04T08:38:48;24.30;99.90
27781;DHT22;15167;1.318;103.762;2023-02-04T08:41:15;24.30;99.90
27781;DHT22;15167;1.318;103.762;2023-02-04T08:43:41;24.30;99.90
27781;DHT22;15167;1.318;103.762;2023-02-04T08:46:07;24.40;99.90
27781;DHT22;15167;1.318;103.762;2023-02-04T08:48:33;24.30;99.90
27781;DHT22;15167;1.318;103.762;2023-02-04T08:50:59;24.30;99.90
27781;DHT22;15167;1.318;103.762;2023-02-04T08:53:25;24.30;99.90
27781;DHT22;15167;1.318;103.762;2023-02-04T08:55:51;24.30;99.90
27781;DHT22;15167;1.318;103.762;2023-02-04T08:58:17;24.30;99.90
27781;DHT22;15167;1.318;103.762;2023-02-04T09:00:43;24.20;99.90
27781;DHT22;15167;1.318;103.762;2023-02-04T09:03:09;24.20;99.90
27781;DHT22;15167;1.318;103.762;2023-02-04T09:05:36;24.20;99.90
27781;DHT22;15167;1.318;103.762;2023-02-04T09:08:02;24.10;99.90
27781;DHT22;15167;1.318;103.762;2023-02-04T09:10:28;24.10;99.90
27781;DHT22;15167;1.318;103.762;2023-02-04T09:12:54;24.10;99.90
27781;DHT22;15167;1.318;103.762;2023-02-04T09:15:21;24.10;99.90
27781;DHT22;15167;1.318;103.762;2023-02-04T09:17:48;24.10;99.90
27781;DHT22;15167;1.318;103.762;2023-02-04T09:20:14;24.10;99.90
27781;DHT22;15167;1.318;103.762;2023-02-04T09:22:41;24.10;99.90
27781;DHT22;15167;1.318;103.762;2023-02-04T09:25:07;24.10;99.90
27781;DHT22;15167;1.318;103.762;2023-02-04T09:27:33;24.20;99.90
27781;DHT22;15167;1.318;103.762;2023-02-04T09:29:59;24.20;99.90
27781;DHT22;15167;1.318;103.762;2023-02-04T09:32:25;24.10;99.90
27781;DHT22;15167;1.318;103.762;2023-02-04T09:34:51;24.20;99.90
27781;DHT22;15167;1.318;103.762;2023-02-04T09:37:17;24.10;99.90
27781;DHT22;15167;1.318;103.762;2023-02-04T09:39:43;24.10;99.90
27781;DHT22;15167;1.318;103.762;2023-02-04T09:42:11;24.10;99.90
27781;DHT22;15167;1.318;103.762;2023-02-04T09:44:38;24.10;99.90
27781;DHT22;15167;1.318;103.762;2023-02-04T09:47:04;24.10;99.90
27781;DHT22;15167;1.318;103.762;2023-02-04T09:49:31;24.10;99.90
27781;DHT22;15167;1.318;103.762;2023-02-04T09:51:57;24.10;99.90
27781;DHT22;15167;1.318;103.762;2023-02-04T09:54:23;24.00;99.90
27781;DHT22;15167;1.318;103.762;2023-02-04T09:56:50;24.00;99.90
27781;DHT22;15167;1.318;103.762;2023-02-04T09:59:18;24.10;99.90
27781;DHT22;15167;1.318;103.762;2023-02-04T10:01:45;24.10;99.90
27781;DHT22;15167;1.318;103.762;2023-02-04T10:04:12;24.20;99.90
27781;DHT22;15167;1.318;103.762;2023-02-04T10:06:39;24.20;99.90
27781;DHT22;15167;1.318;103.762;2023-02-04T10:09:08;24.20;99.90
27781;DHT22;15167;1.318;103.762;2023-02-04T10:11:35;24.30;99.90
27781;DHT22;15167;1.318;103.762;2023-02-04T10:14:02;24.30;99.90
27781;DHT22;15167;1.318;103.762;2023-02-04T10:16:32;24.30;99.90
27781;DHT22;15167;1.318;103.762;2023-02-04T10:19:02;24.30;99.90
27781;DHT22;15167;1.318;103.762;2023-02-04T10:21:30;24.30;99.90
27781;DHT22;15167;1.318;103.762;2023-02-04T10:23:57;24.30;99.90
27781;DHT22;15167;1.318;103.762;2023-02-04T10:26:25;24.30;99.90
27781;DHT22;15167;1.318;103.762;2023-02-04T10:29:05;24.30;99.90
27781;DHT22;15167;1.318;103.762;2023-02-04T10:31:33;24.30;99.90
27781;DHT22;15167;1.318;103.762;2023-02-04T10:34:05;24.40;99.90
27781;DHT22;15167;1.318;103.762;2023-02-04T10:36:31;24.40;99.90
27781;DHT22;15167;1.318;103.762;2023-02-04T10:39:05;24.50;99.90
27781;DHT22;15167;1.318;103.762;2023-02-04T10:41:31;24.50;99.90
27781;DHT22;15167;1.318;103.762;2023-02-04T10:44:02;24.50;99.90
27781;DHT22;15167;1.318;103.762;2023-02-04T10:46:29;24.60;99.90
27781;DHT22;15167;1.318;103.762;2023-02-04T10:48:56;24.60;99.90
27781;DHT22;15167;1.318;103.762;2023-02-04T10:51:22;24.60;99.90
27781;DHT22;15167;1.318;103.762;2023-02-04T10:53:48;24.60;99.90
27781;DHT22;15167;1.318;103.762;2023-02-04T10:56:51;24.60;99.90
27781;DHT22;15167;1.318;103.762;2023-02-04T10:59:19;24.60;99.90
27781;DHT22;15167;1.318;103.762;2023-02-04T11:01:48;24.70;99.90
27781;DHT22;15167;1.318;103.762;2023-02-04T11:04:14;24.70;99.90
27781;DHT22;15167;1.318;103.762;2023-02-04T11:06:40;24.80;99.90
27781;DHT22;15167;1.318;103.762;2023-02-04T11:09:06;24.80;99.90
27781;DHT22;15167;1.318;103.762;2023-02-04T11:11:32;24.80;99.90
27781;DHT22;15167;1.318;103.762;2023-02-04T11:13:59;24.80;99.90
27781;DHT22;15167;1.318;103.762;2023-02-04T11:16:30;24.80;99.90
27781;DHT22;15167;1.318;103.762;2023-02-04T11:18:58;24.80;99.90
27781;DHT22;15167;1.318;103.762;2023-02-04T11:24:36;24.80;99.90
27781;DHT22;15167;1.318;103.762;2023-02-04T11:26:41;24.80;99.90
27781;DHT22;15167;1.318;103.762;2023-02-04T11:31:59;24.80;99.90
27781;DHT22;15167;1.318;103.762;2023-02-04T11:34:27;24.90;99.90
27781;DHT22;15167;1.318;103.762;2023-02-04T11:39:19;24.90;99.90
27781;DHT22;15167;1.318;103.762;2023-02-04T11:41:45;24.90;99.90
27781;DHT22;15167;1.318;103.762;2023-02-04T11:44:14;24.90;99.90
27781;DHT22;15167;1.318;103.762;2023-02-04T11:46:41;25.00;99.90
27781;DHT22;15167;1.318;103.762;2023-02-04T11:49:15;25.00;99.10
27781;DHT22;15167;1.318;103.762;2023-02-04T11:51:43;25.00;93.80
27781;DHT22;15167;1.318;103.762;2023-02-04T11:54:12;25.00;91.50
27781;DHT22;15167;1.318;103.762;2023-02-04T11:56:41;25.00;91.40
27781;DHT22;15167;1.318;103.762;2023-02-04T11:59:08;25.10;86.70
27781;DHT22;15167;1.318;103.762;2023-02-04T12:01:35;25.10;88.30
27781;DHT22;15167;1.318;103.762;2023-02-04T12:04:03;25.10;83.50
27781;DHT22;15167;1.318;103.762;2023-02-04T12:06:30;25.10;80.10
27781;DHT22;15167;1.318;103.762;2023-02-04T12:09:30;25.10;78.90
27781;DHT22;15167;1.318;103.762;2023-02-04T12:11:56;25.10;80.00
27781;DHT22;15167;1.318;103.762;2023-02-04T12:14:33;25.00;75.70
27781;DHT22;15167;1.318;103.762;2023-02-04T12:16:59;25.00;71.50
27781;DHT22;15167;1.318;103.762;2023-02-04T12:19:26;25.00;70.20
27781;DHT22;15167;1.318;103.762;2023-02-04T12:21:52;25.00;69.60
27781;DHT22;15167;1.318;103.762;2023-02-04T12:24:19;25.00;69.20
27781;DHT22;15167;1.318;103.762;2023-02-04T12:26:45;25.00;63.90
27781;DHT22;15167;1.318;103.762;2023-02-04T12:29:11;25.00;62.00
27781;DHT22;15167;1.318;103.762;2023-02-04T12:31:37;25.00;59.10
27781;DHT22;15167;1.318;103.762;2023-02-04T12:34:04;25.10;58.10
27781;DHT22;15167;1.318;103.762;2023-02-04T12:36:30;25.00;56.20
27781;DHT22;15167;1.318;103.762;2023-02-04T12:38:56;25.00;55.00
27781;DHT22;15167;1.318;103.762;2023-02-04T12:41:25;25.00;51.70
27781;DHT22;15167;1.318;103.762;2023-02-04T12:43:51;25.00;49.10
27781;DHT22;15167;1.318;103.762;2023-02-04T12:46:19;25.00;47.10
27781;DHT22;15167;1.318;103.762;2023-02-04T12:48:45;25.00;47.20
27781;DHT22;15167;1.318;103.762;2023-02-04T12:51:11;25.00;50.80
27781;DHT22;15167;1.318;103.762;2023-02-04T12:53:37;25.00;53.30
27781;DHT22;15167;1.318;103.762;2023-02-04T12:56:04;25.00;55.30
27781;DHT22;15167;1.318;103.762;2023-02-04T12:58:30;25.00;61.40
27781;DHT22;15167;1.318;103.762;2023-02-04T13:00:56;24.90;69.30
27781;DHT22;15167;1.318;103.762;2023-02-04T13:03:22;24.90;75.20
27781;DHT22;15167;1.318;103.762;2023-02-04T13:05:49;24.90;80.60
27781;DHT22;15167;1.318;103.762;2023-02-04T13:08:15;24.90;83.60
27781;DHT22;15167;1.318;103.762;2023-02-04T13:10:42;24.90;88.20
27781;DHT22;15167;1.318;103.762;2023-02-04T13:13:08;24.90;92.00
27781;DHT22;15167;1.318;103.762;2023-02-04T13:15:34;24.90;95.20
27781;DHT22;15167;1.318;103.762;2023-02-04T13:18:00;24.90;97.80
27781;DHT22;15167;1.318;103.762;2023-02-04T13:20:26;24.90;99.70
27781;DHT22;15167;1.318;103.762;2023-02-04T13:22:52;24.90;99.90
27781;DHT22;15167;1.318;103.762;2023-02-04T13:25:18;24.90;99.90
27781;DHT22;15167;1.318;103.762;2023-02-04T13:27:44;24.90;99.90
27781;DHT22;15167;1.318;103.762;2023-02-04T13:30:12;24.90;99.90
27781;DHT22;15167;1.318;103.762;2023-02-04T13:32:39;24.90;99.90
27781;DHT22;15167;1.318;103.762;2023-02-04T13:35:06;24.80;99.90
27781;DHT22;15167;1.318;103.762;2023-02-04T13:37:32;24.80;99.90
27781;DHT22;15167;1.318;103.762;2023-02-04T13:39:58;24.90;99.90
27781;DHT22;15167;1.318;103.762;2023-02-04T13:42:24;24.90;99.90
27781;DHT22;15167;1.318;103.762;2023-02-04T13:44:50;24.80;99.90
27781;DHT22;15167;1.318;103.762;2023-02-04T13:47:17;24.90;99.90
27781;DHT22;15167;1.318;103.762;2023-02-04T13:49:43;24.90;99.90
27781;DHT22;15167;1.318;103.762;2023-02-04T13:52:09;24.90;99.90
27781;DHT22;15167;1.318;103.762;2023-02-04T13:54:35;24.90;99.90
27781;DHT22;15167;1.318;103.762;2023-02-04T13:57:01;24.90;99.90
27781;DHT22;15167;1.318;103.762;2023-02-04T13:59:27;24.90;99.90
27781;DHT22;15167;1.318;103.762;2023-02-04T14:01:53;24.90;99.90
27781;DHT22;15167;1.318;103.762;2023-02-04T14:04:19;24.80;99.90
27781;DHT22;15167;1.318;103.762;2023-02-04T14:06:45;24.80;99.90
27781;DHT22;15167;1.318;103.762;2023-02-04T14:09:12;24.90;99.90
27781;DHT22;15167;1.318;103.762;2023-02-04T14:11:38;24.90;99.90
27781;DHT22;15167;1.318;103.762;2023-02-04T14:14:04;24.90;99.90
27781;DHT22;15167;1.318;103.762;2023-02-04T14:16:31;24.90;99.90
27781;DHT22;15167;1.318;103.762;2023-02-04T14:18:57;24.90;99.90
27781;DHT22;15167;1.318;103.762;2023-02-04T14:21:23;24.90;99.90
27781;DHT22;15167;1.318;103.762;2023-02-04T14:23:49;24.90;99.90
27781;DHT22;15167;1.318;103.762;2023-02-04T14:26:15;24.90;99.90
27781;DHT22;15167;1.318;103.762;2023-02-04T14:28:41;24.90;99.90
27781;DHT22;15167;1.318;103.762;2023-02-04T14:31:10;24.90;99.90
27781;DHT22;15167;1.318;103.762;2023-02-04T14:33:36;24.90;99.90
27781;DHT22;15167;1.318;103.762;2023-02-04T14:36:02;24.80;99.90
27781;DHT22;15167;1.318;103.762;2023-02-04T14:38:28;24.90;99.90
27781;DHT22;15167;1.318;103.762;2023-02-04T14:40:58;24.90;99.90
27781;DHT22;15167;1.318;103.762;2023-02-04T14:43:24;24.80;99.90
27781;DHT22;15167;1.318;103.762;2023-02-04T14:45:51;24.80;99.90
27781;DHT22;15167;1.318;103.762;2023-02-04T14:48:17;24.90;99.90
27781;DHT22;15167;1.318;103.762;2023-02-04T14:50:43;24.90;99.90
27781;DHT22;15167;1.318;103.762;2023-02-04T14:53:09;24.90;99.90
27781;DHT22;15167;1.318;103.762;2023-02-04T14:55:35;24.90;99.90
27781;DHT22;15167;1.318;103.762;2023-02-04T14:58:01;24.80;99.90
27781;DHT22;15167;1.318;103.762;2023-02-04T15:00:28;24.80;99.90
27781;DHT22;15167;1.318;103.762;2023-02-04T15:02:54;24.80;99.90
27781;DHT22;15167;1.318;103.762;2023-02-04T15:05:20;24.80;99.90
27781;DHT22;15167;1.318;103.762;2023-02-04T15:07:46;24.80;99.90
27781;DHT22;15167;1.318;103.762;2023-02-04T15:10:12;24.80;99.90
27781;DHT22;15167;1.318;103.762;2023-02-04T15:12:39;24.80;99.90
27781;DHT22;15167;1.318;103.762;2023-02-04T15:15:05;24.80;99.90
27781;DHT22;15167;1.318;103.762;2023-02-04T15:17:31;24.80;99.90
27781;DHT22;15167;1.318;103.762;2023-02-04T15:19:57;24.90;99.90
27781;DHT22;15167;1.318;103.762;2023-02-04T15:22:23;24.80;99.90